createdAt,value
2022-12-07T00:14:26.151Z,99.30
2022-12-07T00:24:27.899Z,99.40
2022-12-07T00:34:29.583Z,99.10
2022-12-07T00:44:31.191Z,99.20
2022-12-07T01:04:35.634Z,98.70
2022-12-07T01:24:39.466Z,98.30
2022-12-07T01:34:41.117Z,98.10
2022-12-07T01:45:27.409Z,98.00
2022-12-07T02:16:11.010Z,97.80
2022-12-07T02:26:43.695Z,97.70
2022-12-07T02:36:52.287Z,97.80
2022-12-07T02:47:06.761Z,98.00
2022-12-07T02:57:47.099Z,97.90
2022-12-07T03:08:27.072Z,97.80
2022-12-07T03:18:32.927Z,97.80
2022-12-07T03:28:37.867Z,97.80
2022-12-07T03:38:46.017Z,97.80
2022-12-07T03:48:55.650Z,97.70
2022-12-07T04:08:59.411Z,97.50
2022-12-07T04:19:01.048Z,97.50
2022-12-07T04:29:07.412Z,97.50
2022-12-07T04:39:19.781Z,97.50
2022-12-07T04:49:21.748Z,97.30
2022-12-07T04:59:23.392Z,97.40
2022-12-07T05:09:25.043Z,97.30
2022-12-07T05:29:29.252Z,96.90
2022-12-07T05:39:30.866Z,96.70
2022-12-07T05:49:32.591Z,96.90
2022-12-07T06:09:37.160Z,97.10
2022-12-07T06:29:41.139Z,97.40
2022-12-07T06:59:46.903Z,97.60
2022-12-07T07:09:48.524Z,97.80
2022-12-07T07:29:52.242Z,97.90
2022-12-07T07:39:53.870Z,98.00
2022-12-07T07:49:55.502Z,98.00
2022-12-07T07:59:57.228Z,98.00
2022-12-07T08:09:58.955Z,98.10
2022-12-07T08:40:08.932Z,98.20
2022-12-07T08:50:11.786Z,98.10
2022-12-07T09:00:14.034Z,98.20
2022-12-07T09:20:18.328Z,98.10
2022-12-07T09:40:25.293Z,98.30
2022-12-07T09:50:29.007Z,98.40
2022-12-07T10:00:30.989Z,98.30
2022-12-07T10:10:38.589Z,98.00
2022-12-07T10:20:40.422Z,98.00
2022-12-07T10:31:04.339Z,98.20
2022-12-07T10:41:08.971Z,98.10
2022-12-07T10:51:10.597Z,97.70
2022-12-07T11:01:49.972Z,97.60
2022-12-07T11:12:10.054Z,97.30
2022-12-07T11:22:17.774Z,97.10
2022-12-07T11:32:40.547Z,97.20
2022-12-07T11:42:56.988Z,96.80
2022-12-07T11:53:22.681Z,96.70
2022-12-07T12:03:32.949Z,96.40
2022-12-07T12:24:19.804Z,96.20
2022-12-07T12:34:53.633Z,95.90
2022-12-07T12:45:20.041Z,95.60
2022-12-07T12:55:30.559Z,95.50
2022-12-07T13:05:34.077Z,95.80
2022-12-07T13:15:38.407Z,96.30
2022-12-07T13:25:53.208Z,96.70
2022-12-07T13:35:56.821Z,97.00
2022-12-07T13:46:01.825Z,97.20
2022-12-07T14:06:16.670Z,96.70
2022-12-07T14:16:28.804Z,96.80
2022-12-07T14:26:30.644Z,96.70
2022-12-07T14:36:32.276Z,96.40
2022-12-07T14:46:34.010Z,96.50
2022-12-07T14:56:35.702Z,96.40
2022-12-07T15:06:37.624Z,96.60
2022-12-07T15:17:07.398Z,96.80
2022-12-07T15:27:04.131Z,96.70
2022-12-07T15:37:05.933Z,96.80
2022-12-07T15:57:09.680Z,97.10
2022-12-07T16:07:12.529Z,97.10
2022-12-07T16:17:14.193Z,97.10
2022-12-07T16:37:18.225Z,97.90
2022-12-07T16:47:19.897Z,98.10
2022-12-07T17:17:27.944Z,98.40
2022-12-07T17:27:29.758Z,98.60
2022-12-07T17:37:32.725Z,98.80
2022-12-07T17:47:34.596Z,99.00
2022-12-07T17:57:36.325Z,99.10
2022-12-07T18:07:38.098Z,99.40
2022-12-07T18:17:42.509Z,99.50
2022-12-07T18:27:44.141Z,99.50
2022-12-07T19:16:07.757Z,99.00
2022-12-07T19:46:14.773Z,99.70
2022-12-07T19:56:18.323Z,99.70
2022-12-07T20:10:08.827Z,99.70
2022-12-07T20:20:11.029Z,99.60
2022-12-07T20:30:12.801Z,99.70
2022-12-07T20:40:14.481Z,99.60
2022-12-07T21:10:20.440Z,99.60
2022-12-07T21:20:22.094Z,99.70
2022-12-07T21:30:23.757Z,99.60
2022-12-07T21:40:25.397Z,99.80
2022-12-07T22:10:31.942Z,99.80
2022-12-07T22:40:38.859Z,99.70
2022-12-07T23:00:42.629Z,99.70
2022-12-07T23:10:47.007Z,99.60
2022-12-07T23:40:52.849Z,99.60
2022-12-07T23:50:58.999Z,99.60
